Latest Weather Observations for Kingscote

IDS60801

Issued at 6:11 pm CDT Monday 4 March 2024 (issued every 10 minutes, with the page automatically refreshed every 10 minutes)

About weather observations | Map of weather stations | Latest weather observations for SA | Other Formats
Station Details ID: 022841 Name: KINGSCOTE AERO Lat: -35.71 Lon: 137.52 Height: 6.23 m
Data from the previous 72 hours. | See also: Recent months at Kingscote
Date/Time
CDT
Temp
°C
App
Temp
°C
Dew
Point
°C
Rel
Hum
%
Delta-T
°C
Wind Press
QNH
hPa
Press
MSL
hPa
Rain since
9am
mm
Dir  Spd
km/h
Gust
km/h
Spd
kts
Gust
kts
04/06:00pm 22.8 21.2 11.5 49 6.3 ESE 11 17 6 9 1018.3 1018.3 0.0
04/05:30pm 24.3 21.1 11.3 44 7.3 E 19 24 10 13 1017.9 1017.9 0.0
04/05:00pm 24.1 21.2 11.1 44 7.3 E 17 22 9 12 1018.3 1018.3 0.0
04/04:30pm 23.3 20.5 10.0 43 7.3 E 15 20 8 11 1018.6 1018.6 0.0
04/04:00pm 24.3 21.7 9.5 39 8.1 E 13 20 7 11 1018.5 1018.5 0.0
04/03:30pm 23.6 20.9 10.3 43 7.3 ENE 15 19 8 10 1019.0 1019.0 0.0
04/03:00pm 22.9 19.7 10.0 44 7.0 NE 17 22 9 12 1019.4 1019.4 0.0
04/02:30pm 23.4 19.9 10.8 45 7.0 ENE 20 26 11 14 1019.5 1019.5 0.0
04/02:00pm 22.4 17.7 10.5 47 6.5 ENE 26 32 14 17 1019.5 1019.5 0.0
04/01:30pm 22.7 18.7 10.5 46 6.7 ENE 22 30 12 16 1020.0 1020.0 0.0
04/01:00pm 23.1 19.4 11.5 48 6.5 ENE 22 30 12 16 1020.4 1020.4 0.0
04/12:30pm 21.7 17.4 10.8 50 6.0 E 24 35 13 19 1020.9 1020.9 0.0
04/12:00pm 22.2 17.5 10.7 48 6.3 ENE 26 35 14 19 1021.2 1021.2 0.0
04/11:30am 21.5 16.4 10.6 50 5.9 ENE 28 35 15 19 1021.5 1021.5 0.0
04/11:00am 20.9 15.8 10.7 52 5.6 E 28 35 15 19 1022.1 1022.1 0.0
04/10:30am 20.1 15.4 10.5 54 5.2 E 26 33 14 18 1022.4 1022.4 0.0
04/10:00am 19.1 14.8 10.9 59 4.5 E 24 32 13 17 1022.9 1022.9 0.0
04/09:30am 18.3 13.5 10.4 60 4.2 E 26 33 14 18 1022.8 1022.8 0.0
04/09:00am 17.4 13.4 10.5 64 3.7 E 22 30 12 16 1023.1 1023.1 0.0
04/08:30am 16.0 12.9 10.3 69 3.0 ESE 17 20 9 11 1023.2 1023.2 0.0
04/08:00am 14.5 12.5 10.3 76 2.2 SSE 11 15 6 8 1023.2 1023.2 0.0
04/07:30am 13.1 10.6 9.7 80 1.7 SSE 13 15 7 8 1023.0 1023.0 0.0
04/07:00am 14.1 10.6 10.1 77 2.1 ESE 19 28 10 15 1022.7 1022.7 0.0
04/06:30am 14.7 11.1 10.7 77 2.1 ESE 20 26 11 14 1022.7 1022.7 0.0
04/06:00am 15.1 12.2 11.1 77 2.1 ESE 17 22 9 12 1022.3 1022.3 0.0
04/05:30am 15.5 11.7 11.3 76 2.2 ESE 22 32 12 17 1022.0 1022.0 0.0
04/05:00am 15.3 11.9 11.1 76 2.2 ESE 20 26 11 14 1021.8 1021.8 0.0
04/04:30am 15.3 11.9 11.1 76 2.2 ESE 20 30 11 16 1021.9 1021.9 0.0
04/04:00am 15.0 11.6 11.2 78 2.0 ESE 20 28 11 15 1022.0 1022.0 0.0
04/03:30am 15.1 11.9 11.3 78 2.0 ESE 19 26 10 14 1022.1 1022.1 0.0
04/03:00am 15.1 11.3 11.3 78 2.0 ESE 22 28 12 15 1022.1 1022.1 0.0
04/02:30am 15.0 12.2 11.4 79 1.9 ESE 17 22 9 12 1022.5 1022.5 0.0
04/02:00am 15.3 12.2 11.7 79 1.9 ESE 19 26 10 14 1022.8 1022.8 0.0
04/01:30am 15.3 12.5 11.5 78 2.0 ESE 17 22 9 12 1022.8 1022.8 0.0
04/01:00am 15.4 12.7 11.6 78 2.0 SE 17 24 9 13 1022.8 1022.8 0.0
04/12:30am 15.2 13.2 11.4 78 2.0 SE 13 17 7 9 1023.0 1023.0 0.0
04/12:00am 15.9 12.8 11.7 76 2.3 SE 19 22 10 12 1023.2 1023.2 0.0
 
Date/Time
CDT
Temp
°C
App
Temp
°C
Dew
Point
°C
Rel
Hum
%
Delta-T
°C
Wind Press
QNH
hPa
Press
MSL
hPa
Rain since
9am
mm
Dir  Spd
km/h
Gust
km/h
Spd
kts
Gust
kts
03/11:30pm 16.4 13.2 12.0 75 2.4 SE 20 30 11 16 1023.1 1023.1 0.0
03/11:00pm 16.9 14.0 12.2 74 2.6 SE 19 24 10 13 1023.2 1023.2 0.0
03/10:30pm 16.2 13.4 11.2 72 2.7 SE 17 22 9 12 1023.4 1023.4 0.0
03/10:00pm 16.8 12.7 11.3 70 3.0 SE 24 33 13 18 1023.2 1023.2 0.0
03/09:30pm 17.0 12.1 11.3 69 3.1 SE 28 39 15 21 1023.0 1023.0 0.0
03/09:00pm 17.5 13.2 12.0 70 3.0 SE 26 35 14 19 1022.9 1022.9 0.0
03/08:30pm 17.4 13.7 11.4 68 3.2 SE 22 35 12 19 1023.0 1023.0 0.0
03/08:00pm 17.3 12.8 11.3 68 3.2 SE 26 37 14 20 1022.7 1022.7 0.0
03/07:30pm 17.4 12.4 11.0 66 3.4 SSE 28 39 15 21 1022.6 1022.6 0.0
03/07:00pm 17.9 12.2 11.0 64 3.7 SE 32 44 17 24 1022.3 1022.3 0.0
03/06:30pm 18.6 13.1 10.7 60 4.2 SSE 30 39 16 21 1022.1 1022.1 0.0
03/06:00pm 18.9 12.8 10.5 58 4.5 SE 33 43 18 23 1021.8 1021.8 0.0
03/05:30pm 18.7 12.8 10.3 58 4.5 SE 32 41 17 22 1021.8 1021.8 0.0
03/05:00pm 20.3 14.6 11.0 55 5.1 SE 32 44 17 24 1021.9 1021.9 0.0
03/04:30pm 19.9 13.8 10.3 54 5.2 SE 33 44 18 24 1021.8 1021.8 0.0
03/04:00pm 21.1 15.4 9.7 48 6.1 SSE 30 41 16 22 1022.3 1022.3 0.0
03/03:30pm 21.2 15.5 9.8 48 6.1 SSE 30 39 16 21 1022.6 1022.6 0.0
03/03:00pm 20.8 14.7 9.7 49 5.9 SE 32 44 17 24 1022.8 1022.8 0.0
03/02:30pm 20.2 15.1 9.2 49 5.8 SSE 26 39 14 21 1023.2 1023.2 0.0
03/02:00pm 20.9 16.0 9.8 49 6.0 SE 26 35 14 19 1023.1 1023.1 0.0
03/01:30pm 20.7 15.7 9.6 49 5.9 SE 26 35 14 19 1022.9 1022.9 0.0
03/01:00pm 20.0 15.3 9.3 50 5.7 SE 24 37 13 20 1023.1 1023.1 0.0
03/12:30pm 20.5 15.2 9.7 50 5.8 SE 28 39 15 21 1023.3 1023.3 0.0
03/12:00pm 20.3 15.4 9.8 51 5.6 SE 26 39 14 21 1023.4 1023.4 0.0
03/11:30am 19.7 14.9 9.0 50 5.6 SE 24 35 13 19 1023.5 1023.5 0.0
03/11:00am 19.5 14.9 9.7 53 5.2 SSE 24 33 13 18 1023.2 1023.2 0.0
03/10:30am 19.7 14.5 10.1 54 5.1 SSE 28 35 15 19 1023.1 1023.1 0.0
03/10:00am 18.3 14.4 9.4 56 4.7 SSE 20 28 11 15 1023.2 1023.2 0.0
03/09:30am 18.8 14.9 9.6 55 4.8 SE 20 32 11 17 1022.7 1022.7 0.0
03/09:00am 16.8 13.0 9.2 61 3.9 SSE 19 26 10 14 1022.5 1022.5 0.0
03/08:30am 16.7 12.3 9.1 61 3.9 SE 22 32 12 17 1022.2 1022.2 0.0
03/08:00am 15.9 11.5 9.1 64 3.5 SSE 22 30 12 16 1021.8 1021.8 0.0
03/07:30am 15.7 13.0 9.1 65 3.4 SSE 13 17 7 9 1021.5 1021.5 0.0
03/07:00am 15.6 12.6 9.1 65 3.3 SSE 15 20 8 11 1021.3 1021.3 0.0
03/06:30am 15.2 11.8 9.1 67 3.1 S 17 20 9 11 1021.2 1021.2 0.0
03/06:00am 15.1 12.4 9.0 67 3.1 S 13 17 7 9 1021.0 1021.0 0.0
03/05:30am 14.7 12.6 9.7 72 2.6 S 11 13 6 7 1021.0 1021.0 0.0
03/05:00am 14.6 12.8 9.4 71 2.7 S 9 13 5 7 1020.7 1020.7 0.0
03/04:30am 14.1 11.9 9.5 74 2.3 S 11 13 6 7 1020.6 1020.6 0.0
03/04:00am 14.0 12.2 9.4 74 2.4 S 9 13 5 7 1020.4 1020.4 0.0
03/03:30am 13.4 11.6 9.5 77 2.0 S 9 13 5 7 1020.4 1020.4 0.0
03/03:00am 12.5 10.2 9.1 80 1.7 S 11 13 6 7 1020.4 1020.4 0.0
03/02:30am 12.2 9.9 9.0 81 1.6 S 11 11 6 6 1020.2 1020.2 0.0
03/02:00am 12.0 9.6 8.8 81 1.6 S 11 11 6 6 1020.5 1020.5 0.0
03/01:30am 12.5 10.6 9.1 80 1.7 S 9 11 5 6 1020.6 1020.6 0.0
03/01:00am 13.1 10.5 9.5 79 1.8 S 13 15 7 8 1020.6 1020.6 0.0
03/12:30am 12.6 10.0 9.4 81 1.6 S 13 15 7 8 1020.8 1020.8 0.0
03/12:00am 12.9 10.3 9.2 78 1.9 S 13 15 7 8 1021.1 1021.1 0.0
 
Date/Time
CDT
Temp
°C
App
Temp
°C
Dew
Point
°C
Rel
Hum
%
Delta-T
°C
Wind Press
QNH
hPa
Press
MSL
hPa
Rain since
9am
mm
Dir  Spd
km/h
Gust
km/h
Spd
kts
Gust
kts
02/11:30pm 13.2 11.4 9.5 78 1.9 SSW 9 11 5 6 1021.1 1021.1 0.0
02/11:00pm 12.5 10.1 8.6 77 1.9 SSW 11 11 6 6 1021.1 1021.1 0.0
02/10:30pm 12.8 10.4 8.5 75 2.1 SSW 11 11 6 6 1021.2 1021.2 0.0
02/10:00pm 13.5 11.2 9.0 74 2.3 SSW 11 13 6 7 1021.4 1021.4 0.0
02/09:30pm 14.0 12.0 8.8 71 2.6 SSW 9 11 5 6 1021.3 1021.3 0.0
02/09:00pm 14.7 12.4 8.9 68 2.9 S 11 11 6 6 1021.0 1021.0 0.0
02/08:30pm 15.9 13.2 9.1 64 3.5 SSE 13 15 7 8 1020.6 1020.6 0.0
02/08:00pm 16.8 13.7 9.0 60 4.0 SE 15 20 8 11 1020.3 1020.3 0.0
02/07:30pm 17.7 13.9 9.8 60 4.2 SE 20 28 11 15 1020.3 1020.3 0.0
02/07:00pm 18.8 14.3 10.1 57 4.6 SSE 24 35 13 19 1020.0 1020.0 0.0
02/06:30pm 19.2 14.8 10.5 57 4.7 SE 24 32 13 17 1020.0 1020.0 0.0
02/06:00pm 19.6 15.2 10.3 55 5.0 SSE 24 32 13 17 1019.8 1019.8 0.0
02/05:30pm 21.0 16.0 11.1 53 5.4 SE 28 41 15 22 1019.6 1019.6 0.0
02/05:00pm 20.6 15.8 10.4 52 5.5 SE 26 37 14 20 1019.8 1019.8 0.0
02/04:30pm 21.8 16.9 11.2 51 5.9 SSE 28 35 15 19 1019.9 1019.9 0.0
02/04:00pm 21.4 16.7 10.6 50 5.9 SSE 26 35 14 19 1019.8 1019.8 0.0
02/03:30pm 21.5 18.2 10.9 51 5.8 SSE 19 32 10 17 1020.0 1020.0 0.0
02/03:00pm 21.8 17.9 10.9 50 6.0 SSE 22 35 12 19 1020.2 1020.2 0.0
02/02:30pm 22.2 17.8 11.6 51 5.9 SE 26 39 14 21 1020.5 1020.5 0.0
02/02:00pm 22.3 18.1 12.5 53 5.6 SE 26 37 14 20 1020.3 1020.3 0.0
02/01:30pm 21.1 16.3 11.7 55 5.2 SSE 28 37 15 20 1020.4 1020.4 0.0
02/01:00pm 23.6 20.4 12.0 48 6.6 SE 20 30 11 16 1020.1 1020.1 0.0
02/12:30pm 21.9 17.5 11.6 52 5.7 SSE 26 43 14 23 1020.3 1020.3 0.0
02/12:00pm 23.0 20.0 12.0 50 6.2 SE 19 28 10 15 1020.5 1020.5 0.0
02/11:30am 22.2 18.4 12.5 54 5.5 SE 24 33 13 18 1020.6 1020.6 0.0
02/11:00am 21.0 17.1 10.8 52 5.6 SE 22 30 12 16 1020.8 1020.8 0.0
02/10:30am 20.3 15.7 11.2 56 5.0 SE 26 35 14 19 1020.8 1020.8 0.0
02/10:00am 19.2 15.1 11.5 61 4.2 SSE 24 30 13 16 1020.9 1020.9 0.0
02/09:30am 20.2 16.0 11.1 56 5.0 SSE 24 32 13 17 1020.7 1020.7 0.0
02/09:00am 20.1 17.3 13.1 64 4.0 SSE 20 30 11 16 1020.5 1020.5 0.0
02/08:30am 17.4 16.6 13.9 80 2.0 S 11 15 6 8 1020.4 1020.4 0.0
02/08:00am 15.5 15.0 13.7 89 1.0 S 9 13 5 7 1019.9 1019.9 0.0
02/07:30am 13.9 13.5 13.0 94 0.5 SSW 7 7 4 4 1019.5 1019.5 0.0
02/07:00am 13.3 12.9 12.4 94 0.5 SSW 6 7 3 4 1018.9 1018.9 0.0
02/06:30am 13.4 13.0 12.5 94 0.5 SSW 6 7 3 4 1018.4 1018.4 0.0
02/06:00am 12.5 11.6 11.4 93 0.6 SSW 7 7 4 4 1018.2 1018.2 0.0
02/05:30am 12.5 11.6 11.2 92 0.7 SSW 7 9 4 5 1017.9 1017.9 0.0
02/05:00am 12.9 11.3 11.6 92 0.7 SSW 11 13 6 7 1017.9 1017.9 0.0
02/04:30am 12.5 11.2 11.1 91 0.7 SSW 9 9 5 5 1018.0 1018.0 0.0
02/04:00am 13.3 12.6 11.9 91 0.7 SW 7 7 4 4 1018.0 1018.0 0.0
02/03:30am 13.6 12.9 12.0 90 0.9 SW 7 7 4 4 1018.3 1018.3 0.0
02/03:00am 13.8 13.0 11.8 88 1.1 SW 7 9 4 5 1018.6 1018.6 0.0
02/02:30am 14.8 13.6 12.7 87 1.1 SSW 11 13 6 7 1018.5 1018.5 0.0
02/02:00am 15.5 14.5 13.3 87 1.2 SSW 11 15 6 8 1018.9 1018.9 0.0
02/01:30am 15.2 14.5 13.1 87 1.2 SSW 9 11 5 6 1019.2 1019.2 0.0
02/01:00am 15.0 14.6 12.5 85 1.4 SSW 6 7 3 4 1019.1 1019.1 0.0
02/12:30am 15.0 14.6 12.3 84 1.5 SSW 6 9 3 5 1018.8 1018.8 0.0
02/12:00am 15.2 14.2 12.3 83 1.6 SW 9 11 5 6 1019.1 1019.1 0.0
 
Date/Time
CDT
Temp
°C
App
Temp
°C
Dew
Point
°C
Rel
Hum
%
Delta-T
°C
Wind Press
QNH
hPa
Press
MSL
hPa
Rain since
9am
mm
Dir  Spd
km/h
Gust
km/h
Spd
kts
Gust
kts
01/11:30pm 15.9 16.7 12.5 80 1.9 CALM 0 0 0 0 1019.3 1019.3 0.0
01/11:00pm 16.3 16.3 12.5 78 2.1 SSW 4 6 2 3 1019.3 1019.3 0.0
01/10:30pm 16.6 16.3 12.6 77 2.2 SSW 6 7 3 4 1019.2 1019.2 0.0
01/10:00pm 17.2 16.4 12.9 76 2.4 SSW 9 13 5 7 1018.6 1018.6 0.0
01/09:30pm 17.3 16.5 12.8 75 2.5 SSW 9 11 5 6 1018.2 1018.2 0.0
01/09:00pm 17.8 16.2 12.9 73 2.7 SSW 13 15 7 8 1017.6 1017.6 0.0
01/08:30pm 18.1 16.0 12.5 70 3.1 SSW 15 19 8 10 1017.3 1017.3 0.0
01/08:00pm 18.6 16.1 12.4 67 3.5 SSW 17 22 9 12 1017.1 1017.1 0.0
01/07:30pm 19.1 16.2 12.4 65 3.7 SSW 19 24 10 13 1016.9 1016.9 0.0
01/07:00pm 19.7 16.1 12.0 61 4.3 SSW 22 30 12 16 1016.6 1016.6 0.0
01/06:30pm 20.7 16.7 11.9 57 4.9 SSW 24 30 13 16 1016.1 1016.1 0.0

Other formats

Comma delimited format used in spreadsheet applications
http://www.bom.gov.au/fwo/IDS60801/IDS60801.95807.axf

JavaScript Object Notation format (JSON) in row-major order
http://www.bom.gov.au/fwo/IDS60801/IDS60801.95807.json

Data quality

Most of these data are generated automatically and are frequently updated. Quality checks on data are not normally performed. It is possible for incorrect values to appear. Refer to information at About Latest Weather Observations and please check the disclaimer before using these data.